Latest Weather Observations for Sydney Airport

IDN60801

Issued at 6:12 pm EST Monday 22 April 2019 (issued every 10 minutes, with the page automatically refreshed every 10 minutes)

About weather observations | Map of weather stations | Latest weather observations for NSW | Other Formats
Station Details ID: 066037 Name: SYDNEY AIRPORT AMO Lat: -33.95 Lon: 151.17 Height: 6.0 m
Data from the previous 72 hours. | See also: Recent months at Sydney Airport
Date/Time
EST
Temp
°C
App
Temp
°C
Dew
Point
°C
Rel
Hum
%
Delta-T
°C
Wind Press
QNH
hPa
Press
MSL
hPa
Rain since
9am
mm
Dir  Spd
km/h
Gust
km/h
Spd
kts
Gust
kts
22/06:00pm 23.4 23.2 18.5 74 3.1 NE 17 20 9 11 1022.9 1022.9 0.0
22/05:30pm 23.5 22.4 17.7 70 3.6 NE 20 26 11 14 1022.3 1022.3 0.0
22/05:00pm 23.8 21.4 17.3 67 4.0 NE 26 32 14 17 1021.7 1021.7 0.0
22/04:30pm 24.7 21.7 16.7 61 4.9 NE 28 35 15 19 1021.7 1021.7 0.0
22/04:00pm 24.5 21.4 16.5 61 4.9 NE 28 35 15 19 1021.5 1021.5 0.0
22/03:30pm 25.0 20.9 15.9 57 5.5 ENE 32 37 17 20 1021.3 1021.3 0.0
22/03:00pm 25.4 21.7 16.0 56 5.7 NE 30 33 16 18 1021.2 1021.2 0.0
22/02:30pm 25.9 22.8 15.6 53 6.3 NE 26 35 14 19 1021.3 1021.3 0.0
22/02:00pm 26.5 23.9 14.9 49 7.0 NE 22 28 12 15 1021.3 1021.3 0.0
22/01:30pm 25.9 22.8 14.4 49 6.9 NE 24 32 13 17 1021.3 1021.3 0.0
22/01:00pm 26.3 23.5 14.4 48 7.1 NE 22 30 12 16 1021.5 1021.5 0.0
22/12:30pm 26.3 24.0 14.7 48 7.0 NE 20 26 11 14 1021.4 1021.4 0.0
22/12:00pm 25.6 23.1 14.1 49 6.8 NE 20 28 11 15 1021.8 1021.8 0.0
22/11:30am 25.5 23.4 15.2 53 6.2 NNE 20 28 11 15 1021.9 1021.9 0.0
22/11:00am 24.3 22.1 15.0 56 5.5 NE 20 26 11 14 1022.3 1022.3 0.0
22/10:30am 24.6 21.2 14.7 54 5.9 NE 26 32 14 17 1022.5 1022.5 0.0
22/10:00am 24.3 19.8 15.0 56 5.5 NE 32 37 17 20 1022.6 1022.6 0.0
22/09:30am 23.7 21.7 15.5 60 4.9 NE 20 32 11 17 1022.7 1022.7 0.0
22/09:00am 23.1 23.3 15.7 63 4.4 NNE 9 15 5 8 1022.8 1022.8 0.0
22/08:30am 22.5 24.2 16.1 67 3.9 NNW 2 9 1 5 1022.9 1022.9 0.0
22/08:00am 21.8 22.9 17.0 74 2.9 WNW 7 9 4 5 1022.8 1022.8 0.0
22/07:30am 20.0 20.2 16.8 82 1.9 W 11 15 6 8 1022.6 1022.6 0.0
22/07:00am 18.8 18.8 16.2 85 1.5 W 11 15 6 8 1022.2 1022.2 0.0
22/06:30am 18.8 18.7 15.9 83 1.7 WSW 11 13 6 7 1021.7 1021.7 0.0
22/06:00am 20.0 20.7 16.0 78 2.4 N 7 9 4 5 1021.4 1021.4 0.0
22/05:30am 20.8 21.7 16.6 77 2.5 NNW 7 7 4 4 1021.1 1021.1 0.0
22/05:00am 20.3 20.9 15.9 76 2.6 N 7 9 4 5 1021.0 1021.0 0.0
22/04:30am 20.8 21.0 16.8 78 2.4 N 11 13 6 7 1021.2 1021.2 0.0
22/04:00am 21.1 21.2 16.5 75 2.8 NE 11 11 6 6 1020.9 1020.9 0.0
22/03:30am 21.2 21.9 17.0 77 2.6 NE 9 11 5 6 1021.1 1021.1 0.0
22/03:00am 20.7 23.2 17.3 81 2.1 CALM 0 0 0 0 1021.3 1021.3 0.0
22/02:30am 20.8 22.0 17.4 81 2.1 NNW 7 7 4 4 1021.6 1021.6 0.0
22/02:00am 20.8 21.9 17.2 80 2.2 NNW 7 9 4 5 1021.8 1021.8 0.0
22/01:30am 21.2 22.0 17.4 79 2.3 N 9 11 5 6 1021.8 1021.8 0.0
22/01:00am 21.2 22.4 17.4 79 2.3 NNW 7 9 4 5 1022.0 1022.0 0.0
22/12:30am 21.6 21.3 17.4 77 2.6 N 15 20 8 11 1022.0 1022.0 0.0
22/12:00am 22.1 21.6 17.7 76 2.7 N 17 22 9 12 1021.8 1021.8 0.0
 
Date/Time
EST
Temp
°C
App
Temp
°C
Dew
Point
°C
Rel
Hum
%
Delta-T
°C
Wind Press
QNH
hPa
Press
MSL
hPa
Rain since
9am
mm
Dir  Spd
km/h
Gust
km/h
Spd
kts
Gust
kts
21/11:30pm 22.1 21.6 17.7 76 2.7 NNE 17 20 9 11 1021.8 1021.8 0.0
21/11:00pm 22.8 22.3 18.6 77 2.6 NNE 19 26 10 14 1021.9 1021.9 0.0
21/10:30pm 22.4 21.6 18.0 76 2.7 NNE 19 26 10 14 1022.1 1022.1 0.0
21/10:00pm 22.7 22.3 18.9 79 2.4 NNE 19 22 10 12 1022.1 1022.1 0.0
21/09:30pm 22.8 23.0 19.4 81 2.2 NE 17 20 9 11 1022.3 1022.3 0.0
21/09:00pm 22.6 23.1 19.2 81 2.2 NE 15 19 8 10 1022.4 1022.4 0.0
21/08:30pm 22.9 23.6 18.9 78 2.5 NNE 13 19 7 10 1022.2 1022.2 0.0
21/08:00pm 23.2 23.8 19.4 79 2.4 NNE 15 19 8 10 1022.3 1022.3 0.0
21/07:30pm 22.4 22.6 18.6 79 2.4 NE 15 19 8 10 1022.1 1022.1 0.0
21/07:00pm 23.1 23.4 18.8 77 2.7 NE 15 19 8 10 1022.2 1022.2 0.0
21/06:30pm 23.4 23.0 18.9 76 2.9 NNE 19 24 10 13 1022.2 1022.2 0.0
21/06:00pm 23.4 22.8 18.9 76 2.8 NE 20 26 11 14 1022.1 1022.1 0.0
21/05:30pm 23.6 22.9 18.7 74 3.1 NE 20 30 11 16 1022.2 1022.2 0.0
21/05:00pm 23.2 22.8 18.1 73 3.2 NE 17 26 9 14 1021.8 1021.8 0.0
21/04:30pm 23.9 22.3 18.3 71 3.5 NE 24 30 13 16 1021.7 1021.7 0.0
21/04:00pm 24.2 21.8 18.2 69 3.8 ENE 28 33 15 18 1021.5 1021.5 0.0
21/03:30pm 24.2 21.8 17.4 65 4.2 NE 26 33 14 18 1021.6 1021.6 0.0
21/03:00pm 24.7 22.6 17.2 63 4.6 NE 24 30 13 16 1021.7 1021.7 0.0
21/02:30pm 24.3 22.2 17.1 64 4.5 ENE 24 28 13 15 1021.9 1021.9 0.0
21/02:00pm 25.3 23.1 17.0 60 5.1 ENE 24 32 13 17 1022.0 1022.0 0.0
21/01:30pm 25.3 23.2 15.3 54 6.0 ENE 20 28 11 15 1022.1 1022.1 0.0
21/01:00pm 25.8 22.2 15.2 52 6.4 NE 28 33 15 18 1022.3 1022.3 0.0
21/12:30pm 26.1 23.1 15.8 53 6.3 NE 26 32 14 17 1022.6 1022.6 0.0
21/12:00pm 26.0 22.7 15.1 51 6.5 NE 26 33 14 18 1023.4 1023.4 0.0
21/11:30am 25.3 23.3 15.6 55 5.9 NE 20 26 11 14 1023.9 1023.9 0.0
21/11:00am 25.7 23.5 16.0 55 5.9 NNE 22 32 12 17 1024.3 1024.3 0.0
21/10:30am 25.2 23.9 16.9 60 5.1 NE 19 26 10 14 1024.1 1024.1 0.0
21/10:00am 24.9 24.6 17.4 63 4.7 N 15 19 8 10 1024.6 1024.6 0.0
21/09:30am 24.1 24.2 17.4 66 4.2 N 13 17 7 9 1024.5 1024.5 0.0
21/09:00am 23.3 23.8 17.5 70 3.6 N 11 17 6 9 1024.7 1024.7 0.0
21/08:30am 22.6 25.1 18.2 76 2.8 NE 2 9 1 5 1025.1 1025.1 0.0
21/08:00am 20.4 22.0 17.8 85 1.6 WNW 6 9 3 5 1024.9 1024.9 0.0
21/07:30am 20.2 23.1 18.3 89 1.2 CALM 0 0 0 0 1024.6 1024.6 0.0
21/07:00am 19.0 20.4 17.7 92 0.8 NW 7 9 4 5 1024.3 1024.3 0.0
21/06:30am 18.7 20.6 17.7 94 0.6 N 4 7 2 4 1023.9 1023.9 0.0
21/06:00am 18.1 19.2 17.0 93 0.7 NNE 7 9 4 5 1023.8 1023.8 0.0
21/05:30am 18.3 20.7 17.1 93 0.7 CALM 0 0 0 0 1023.6 1023.6 0.0
21/05:00am 18.2 20.6 17.0 93 0.7 CALM 0 0 0 0 1023.5 1023.5 0.0
21/04:30am 18.6 21.2 17.4 93 0.7 CALM 0 0 0 0 1023.2 1023.2 0.0
21/04:00am 18.5 20.3 17.3 93 0.7 WNW 4 7 2 4 1023.2 1023.2 0.0
21/03:30am 18.8 20.3 17.6 93 0.7 WNW 6 7 3 4 1022.9 1022.9 0.0
21/03:00am 19.2 21.6 17.9 92 0.8 WNW 2 7 1 4 1022.9 1022.9 0.0
21/02:30am 19.4 22.3 18.1 92 0.8 CALM 0 0 0 0 1023.2 1023.2 0.0
21/02:00am 19.3 22.0 17.8 91 0.9 CALM 0 0 0 0 1023.4 1023.4 0.0
21/01:30am 19.8 21.3 18.1 90 1.1 WSW 7 9 4 5 1023.7 1023.7 0.0
21/01:00am 20.1 21.6 18.1 88 1.2 W 7 9 4 5 1024.0 1024.0 0.0
21/12:30am 21.0 22.2 18.2 84 1.7 N 9 13 5 7 1024.2 1024.2 0.0
21/12:00am 22.1 22.8 18.9 82 2.0 N 13 17 7 9 1024.2 1024.2 0.0
 
Date/Time
EST
Temp
°C
App
Temp
°C
Dew
Point
°C
Rel
Hum
%
Delta-T
°C
Wind Press
QNH
hPa
Press
MSL
hPa
Rain since
9am
mm
Dir  Spd
km/h
Gust
km/h
Spd
kts
Gust
kts
20/11:30pm 21.4 23.2 18.8 85 1.6 N 7 9 4 5 1024.3 1024.3 0.0
20/11:00pm 21.8 23.3 19.0 84 1.8 NNE 9 11 5 6 1024.6 1024.6 0.0
20/10:30pm 21.3 22.1 18.1 82 2.0 NE 11 15 6 8 1024.7 1024.7 0.0
20/10:00pm 22.1 22.9 19.1 83 1.9 NE 13 17 7 9 1024.9 1024.9 0.0
20/09:30pm 21.9 23.1 19.1 84 1.8 NE 11 13 6 7 1024.9 1024.9 0.0
20/09:00pm 21.5 22.9 18.7 84 1.8 NNE 9 11 5 6 1024.9 1024.9 0.0
20/08:30pm 21.5 22.8 18.5 83 1.9 NE 9 11 5 6 1024.9 1024.9 0.0
20/08:00pm 21.9 23.6 18.5 81 2.1 NE 7 9 4 5 1024.7 1024.7 0.0
20/07:30pm 21.8 22.6 18.2 80 2.2 NE 11 13 6 7 1024.6 1024.6 0.0
20/07:00pm 21.9 23.2 18.5 81 2.1 NE 9 13 5 7 1024.5 1024.5 0.0
20/06:30pm 22.1 22.8 18.9 82 2.0 NE 13 15 7 8 1024.2 1024.2 0.0
20/06:00pm 21.9 21.9 18.9 83 1.9 NE 17 20 9 11 1023.9 1023.9 0.0
20/05:30pm 22.2 22.0 18.6 80 2.3 NE 17 22 9 12 1023.8 1023.8 0.0
20/05:00pm 22.2 21.6 18.4 79 2.4 NE 19 26 10 14 1023.8 1023.8 0.0
20/04:30pm 23.1 22.7 18.8 77 2.7 ENE 19 26 10 14 1023.8 1023.8 0.0
20/04:00pm 23.8 23.2 18.4 72 3.4 E 19 24 10 13 1023.7 1023.7 0.0
20/03:30pm 23.7 23.2 17.9 70 3.6 ENE 17 20 9 11 1023.9 1023.9 0.0
20/03:00pm 24.2 23.7 17.7 67 4.0 E 17 22 9 12 1024.0 1024.0 0.0
20/02:30pm 24.9 24.7 18.4 67 4.1 E 17 20 9 11 1024.1 1024.1 0.0
20/02:00pm 24.8 24.1 18.3 67 4.1 E 19 24 10 13 1024.2 1024.2 0.0
20/01:30pm 24.5 24.0 17.7 66 4.2 E 17 24 9 13 1024.3 1024.3 0.0
20/01:00pm 23.6 23.4 18.5 73 3.2 SE 17 19 9 10 1024.7 1024.7 0.0
20/12:30pm 23.7 23.9 18.6 73 3.2 SSE 15 17 8 9 1025.2 1025.2 0.0
20/12:00pm 23.7 24.5 18.1 71 3.5 ESE 11 15 6 8 1025.6 1025.6 0.0
20/11:30am 22.8 23.0 17.7 73 3.2 SE 13 15 7 8 1026.2 1026.2 0.0
20/11:00am 22.2 23.1 18.4 79 2.4 SE 11 15 6 8 1026.5 1026.5 0.0
20/10:30am 22.3 23.3 17.7 75 2.9 ESE 9 15 5 8 1026.6 1026.6 0.0
20/10:00am 22.0 22.8 17.2 74 2.9 SW 9 15 5 8 1026.8 1026.8 0.0
20/09:30am 21.3 21.9 16.7 75 2.8 WNW 9 13 5 7 1026.9 1026.9 0.0
20/09:00am 21.5 22.4 16.5 73 3.0 WNW 7 11 4 6 1027.0 1027.0 0.0
20/08:30am 19.8 20.5 16.1 79 2.2 NW 7 11 4 6 1027.1 1027.1 0.0
20/08:00am 19.5 20.4 16.2 81 2.0 WNW 6 9 3 5 1027.1 1027.1 0.0
20/07:30am 18.2 18.4 15.8 86 1.4 WNW 9 13 5 7 1026.8 1026.8 0.0
20/07:00am 17.7 17.5 15.7 88 1.2 NW 11 13 6 7 1026.4 1026.4 0.0
20/06:30am 17.1 17.8 15.6 91 0.9 NNW 6 9 3 5 1026.3 1026.3 0.0
20/06:00am 16.8 16.8 15.2 90 0.9 NNW 9 11 5 6 1026.2 1026.2 0.0
20/05:30am 17.2 16.9 15.5 90 1.0 N 11 13 6 7 1026.0 1026.0 0.0
20/05:00am 17.1 17.2 15.6 91 0.9 NW 9 11 5 6 1025.9 1025.9 0.0
20/04:30am 17.3 18.0 16.0 92 0.8 NW 7 9 4 5 1025.9 1025.9 0.0
20/04:00am 17.5 18.4 16.2 92 0.8 NW 6 7 3 4 1025.7 1025.7 0.0
20/03:30am 17.8 18.6 16.3 91 0.9 NNW 7 7 4 4 1025.7 1025.7 0.0
20/03:00am 18.0 18.9 16.5 91 0.9 NNW 7 9 4 5 1025.6 1025.6 0.0
20/02:30am 17.8 18.2 16.3 91 0.9 NNW 9 9 5 5 1025.7 1025.7 0.0
20/02:00am 18.3 18.8 16.6 90 1.0 NNW 9 11 5 6 1026.0 1026.0 0.0
20/01:30am 18.6 19.2 16.8 89 1.1 NNW 9 11 5 6 1026.2 1026.2 0.0
20/01:00am 18.8 19.8 16.8 88 1.2 N 7 9 4 5 1026.3 1026.3 0.0
20/12:30am 18.9 20.8 16.7 87 1.3 NNW 2 6 1 3 1026.5 1026.5 0.0
20/12:00am 19.2 20.3 17.2 88 1.2 WNW 7 9 4 5 1026.6 1026.6 0.0
 
Date/Time
EST
Temp
°C
App
Temp
°C
Dew
Point
°C
Rel
Hum
%
Delta-T
°C
Wind Press
QNH
hPa
Press
MSL
hPa
Rain since
9am
mm
Dir  Spd
km/h
Gust
km/h
Spd
kts
Gust
kts
19/11:30pm 19.5 20.4 17.5 88 1.2 WNW 9 11 5 6 1026.9 1026.9 0.0
19/11:00pm 19.7 20.1 17.3 86 1.5 WSW 11 11 6 6 1027.0 1027.0 0.0
19/10:30pm 20.0 22.6 17.4 85 1.6 CALM 0 0 0 0 1027.0 1027.0 0.0
19/10:00pm 20.3 22.7 17.1 82 1.9 CALM 0 0 0 0 1027.1 1027.1 0.0
19/09:30pm 20.6 23.1 17.2 81 2.1 CALM 0 0 0 0 1027.1 1027.1 0.0
19/09:00pm 21.2 23.1 17.6 80 2.2 N 4 6 2 3 1027.0 1027.0 0.0
19/08:30pm 21.0 22.3 17.6 81 2.1 N 7 7 4 4 1026.8 1026.8 0.0
19/08:00pm 20.8 22.0 17.4 81 2.1 N 7 7 4 4 1026.7 1026.7 0.0
19/07:30pm 21.0 22.4 17.8 82 2.0 NE 7 9 4 5 1026.4 1026.4 0.0
19/07:00pm 20.6 21.8 17.4 82 2.0 NE 7 9 4 5 1026.3 1026.3 0.0
19/06:30pm 20.7 21.6 17.5 82 2.0 NE 9 11 5 6 1026.3 1026.3 0.0

Other formats

Comma delimited format used in spreadsheet applications
http://www.bom.gov.au/fwo/IDN60801/IDN60801.94767.axf

JavaScript Object Notation format (JSON) in row-major order
http://www.bom.gov.au/fwo/IDN60801/IDN60801.94767.json

Data quality

Most of these data are generated automatically and are frequently updated. Quality checks on data are not normally performed. It is possible for incorrect values to appear. Refer to information at About Latest Weather Observations and please check the disclaimer before using these data.